createdAt,value
2022-08-26T00:02:34.773Z,18.47
2022-08-26T00:09:57.454Z,18.41
2022-08-26T00:12:35.932Z,18.38
2022-08-26T00:15:58.789Z,18.33
2022-08-26T00:18:38.836Z,18.30
2022-08-26T00:22:02.984Z,18.29
2022-08-26T00:24:41.417Z,18.29
2022-08-26T00:28:10.297Z,18.28
2022-08-26T00:30:51.589Z,18.24
2022-08-26T00:38:58.638Z,18.14
2022-08-26T00:41:31.563Z,18.12
2022-08-26T00:44:04.080Z,18.10
2022-08-26T00:51:10.139Z,18.01
2022-08-26T01:02:30.262Z,17.89
2022-08-26T01:05:12.232Z,17.85
2022-08-26T01:48:39.175Z,17.39
2022-08-26T01:55:34.547Z,17.36
2022-08-26T02:03:23.312Z,17.30
2022-08-26T02:05:57.743Z,17.30
2022-08-26T02:09:21.891Z,17.27
2022-08-26T02:15:56.527Z,17.26
2022-08-26T02:18:31.556Z,17.26
2022-08-26T02:29:52.175Z,17.23
2022-08-26T02:33:17.517Z,17.22
2022-08-26T02:35:51.331Z,17.23
2022-08-26T02:38:23.564Z,17.25
2022-08-26T02:45:47.217Z,17.25
2022-08-26T02:48:25.903Z,17.24
2022-08-26T02:55:50.084Z,17.14
2022-08-26T02:58:22.967Z,17.13
2022-08-26T03:01:02.136Z,17.12
2022-08-26T03:04:57.520Z,17.10
2022-08-26T03:08:36.346Z,17.07
2022-08-26T03:11:11.057Z,17.03
2022-08-26T03:13:45.092Z,17.02
2022-08-26T03:16:23.572Z,17.00
2022-08-26T03:18:55.876Z,16.98
2022-08-26T03:21:35.512Z,16.96
2022-08-26T03:24:11.113Z,16.93
2022-08-26T03:27:47.844Z,16.91
2022-08-26T03:34:23.705Z,16.84
2022-08-26T03:37:30.271Z,16.80
2022-08-26T03:40:50.467Z,16.76
2022-08-26T03:48:15.663Z,16.60
2022-08-26T03:55:24.886Z,16.48
2022-08-26T03:58:46.578Z,16.44
2022-08-26T04:01:21.656Z,16.42
2022-08-26T04:04:42.564Z,16.45
2022-08-26T04:07:21.820Z,16.45
2022-08-26T04:14:45.794Z,16.43
2022-08-26T04:18:05.353Z,16.42
2022-08-26T04:20:39.266Z,16.45
2022-08-26T04:24:03.592Z,16.44
2022-08-26T04:27:25.600Z,16.43
2022-08-26T04:30:05.385Z,16.46
2022-08-26T04:42:03.690Z,16.53
2022-08-26T04:44:42.799Z,16.55
2022-08-26T04:47:15.205Z,16.57
2022-08-26T04:53:57.509Z,16.61
2022-08-26T04:57:45.162Z,16.65
2022-08-26T05:00:34.070Z,16.70
2022-08-26T05:03:07.682Z,16.76
2022-08-26T05:06:43.726Z,16.83
2022-08-26T05:09:18.552Z,16.89
2022-08-26T05:11:52.057Z,16.96
2022-08-26T05:14:24.982Z,17.03
2022-08-26T05:16:57.468Z,17.10
2022-08-26T05:19:29.762Z,17.18
2022-08-26T05:22:02.359Z,17.26
2022-08-26T05:24:36.395Z,17.35
2022-08-26T05:27:11.637Z,17.45
2022-08-26T05:29:44.395Z,17.56
2022-08-26T05:32:17.063Z,17.69
2022-08-26T05:34:49.341Z,17.81
2022-08-26T05:37:25.071Z,17.95
2022-08-26T05:39:57.615Z,18.09
2022-08-26T05:42:30.286Z,18.23
2022-08-26T05:45:03.279Z,18.38
2022-08-26T05:47:35.644Z,18.51
2022-08-26T05:50:09.492Z,18.66
2022-08-26T05:52:41.672Z,18.78
2022-08-26T05:55:14.026Z,18.92
2022-08-26T05:57:46.593Z,19.06
2022-08-26T06:00:21.061Z,19.21
2022-08-26T06:02:53.501Z,19.38
2022-08-26T06:05:26.765Z,19.53
2022-08-26T06:08:14.237Z,19.67
2022-08-26T06:10:52.637Z,19.84
2022-08-26T06:13:26.864Z,20.01
2022-08-26T06:16:00.347Z,20.19
2022-08-26T06:18:36.521Z,20.34
2022-08-26T06:21:18.271Z,20.48
2022-08-26T06:24:10.309Z,20.64
2022-08-26T06:26:44.051Z,20.78
2022-08-26T06:29:24.290Z,20.93
2022-08-26T06:31:58.208Z,21.06
2022-08-26T06:34:31.031Z,21.20
2022-08-26T06:37:06.318Z,21.34
2022-08-26T06:39:40.255Z,21.51
2022-08-26T06:42:13.726Z,21.67
2022-08-26T06:44:47.533Z,21.82
2022-08-26T06:47:20.492Z,22.00
2022-08-26T06:49:53.132Z,22.15
2022-08-26T06:52:27.809Z,22.31
2022-08-26T06:55:01.476Z,22.46
2022-08-26T06:57:37.653Z,22.59
2022-08-26T07:00:15.461Z,22.76
2022-08-26T07:02:48.066Z,22.92
2022-08-26T07:05:21.117Z,23.10
2022-08-26T07:07:53.690Z,23.24
2022-08-26T07:10:26.641Z,23.38
2022-08-26T07:12:58.867Z,23.53
2022-08-26T07:15:31.662Z,23.67
2022-08-26T07:18:09.218Z,23.83
2022-08-26T07:20:43.000Z,23.99
2022-08-26T07:23:24.179Z,24.15
2022-08-26T07:25:57.577Z,24.30
2022-08-26T07:28:33.426Z,24.44
2022-08-26T07:31:09.821Z,24.57
2022-08-26T07:33:48.603Z,24.71
2022-08-26T07:36:23.157Z,24.83
2022-08-26T07:38:56.424Z,24.99
2022-08-26T07:41:32.316Z,25.15
2022-08-26T07:44:05.335Z,25.28
2022-08-26T07:46:38.169Z,25.41
2022-08-26T07:49:11.637Z,25.52
2022-08-26T07:51:46.776Z,25.63
2022-08-26T07:54:19.892Z,25.72
2022-08-26T07:56:52.675Z,25.83
2022-08-26T07:59:27.853Z,25.95
2022-08-26T08:02:01.452Z,26.06
2022-08-26T08:04:34.646Z,26.18
2022-08-26T08:07:11.610Z,26.28
2022-08-26T08:09:50.427Z,26.38
2022-08-26T08:12:23.292Z,26.44
2022-08-26T08:14:58.627Z,26.54
2022-08-26T08:17:34.585Z,26.63
2022-08-26T08:20:09.381Z,26.75
2022-08-26T08:22:42.540Z,26.85
2022-08-26T08:25:20.045Z,26.97
2022-08-26T08:27:52.439Z,27.09
2022-08-26T08:30:25.592Z,27.22
2022-08-26T08:32:58.695Z,27.37
2022-08-26T08:35:34.688Z,27.51
2022-08-26T08:38:08.203Z,27.53
2022-08-26T08:41:50.682Z,27.60
2022-08-26T08:47:12.405Z,27.72
2022-08-26T08:49:49.692Z,27.82
2022-08-26T08:52:30.466Z,27.92
2022-08-26T08:55:04.328Z,28.05
2022-08-26T08:58:02.231Z,28.17
2022-08-26T09:00:47.774Z,28.23
2022-08-26T09:03:38.009Z,28.35
2022-08-26T09:06:17.469Z,28.46
2022-08-26T09:08:52.001Z,28.58
2022-08-26T09:11:24.377Z,28.66
2022-08-26T09:13:57.855Z,28.74
2022-08-26T09:16:44.125Z,28.78
2022-08-26T09:19:28.761Z,28.82
2022-08-26T09:22:08.722Z,28.86
2022-08-26T09:24:48.456Z,28.93
2022-08-26T09:27:40.020Z,29.01
2022-08-26T09:30:19.995Z,29.06
2022-08-26T09:33:10.837Z,29.12
2022-08-26T09:35:48.675Z,29.20
2022-08-26T09:38:42.184Z,29.24
2022-08-26T09:41:33.354Z,29.27
2022-08-26T09:44:17.856Z,29.37
2022-08-26T09:46:59.347Z,29.44
2022-08-26T09:49:36.584Z,29.46
2022-08-26T09:52:14.741Z,29.41
2022-08-26T09:54:59.566Z,29.38
2022-08-26T09:57:34.376Z,29.36
2022-08-26T10:00:29.143Z,29.40
2022-08-26T10:03:02.794Z,29.46
2022-08-26T10:05:47.822Z,29.47
2022-08-26T10:08:31.043Z,29.48
2022-08-26T10:11:29.490Z,29.55
2022-08-26T10:14:08.972Z,29.56
2022-08-26T10:16:48.510Z,29.58
2022-08-26T10:19:29.163Z,29.60
2022-08-26T10:22:20.246Z,29.62
2022-08-26T10:24:57.696Z,29.59
2022-08-26T10:27:37.846Z,29.58
2022-08-26T10:30:16.518Z,29.58
2022-08-26T10:32:54.495Z,29.50
2022-08-26T10:35:27.632Z,29.45
2022-08-26T10:38:05.681Z,29.49
2022-08-26T10:40:49.081Z,29.51
2022-08-26T10:43:26.033Z,29.49
2022-08-26T10:46:04.585Z,29.46
2022-08-26T10:48:44.855Z,29.46
2022-08-26T10:51:21.161Z,29.47
2022-08-26T10:54:04.958Z,29.43
2022-08-26T10:56:47.497Z,29.37
2022-08-26T10:59:31.838Z,29.36
2022-08-26T11:02:13.873Z,29.33
2022-08-26T11:04:52.456Z,29.28
2022-08-26T11:07:41.881Z,29.26
2022-08-26T11:10:58.891Z,29.26
2022-08-26T11:14:04.143Z,29.26
2022-08-26T11:16:43.367Z,29.24
2022-08-26T11:20:09.524Z,29.22
2022-08-26T11:22:47.839Z,29.23
2022-08-26T11:25:22.839Z,29.17
2022-08-26T11:28:00.904Z,29.17
2022-08-26T11:30:57.895Z,29.18
2022-08-26T11:34:01.465Z,29.20
2022-08-26T11:36:42.839Z,29.22
2022-08-26T11:39:29.451Z,29.23
2022-08-26T11:42:15.402Z,29.23
2022-08-26T11:44:53.175Z,29.29
2022-08-26T11:47:33.042Z,29.30
2022-08-26T11:50:23.359Z,29.24
2022-08-26T11:53:06.362Z,29.21
2022-08-26T11:55:45.370Z,29.21
2022-08-26T11:58:20.713Z,29.24
2022-08-26T12:01:01.680Z,29.24
2022-08-26T12:03:42.904Z,29.23
2022-08-26T12:06:24.128Z,29.25
2022-08-26T12:09:00.314Z,29.26
2022-08-26T12:11:34.629Z,29.26
2022-08-26T12:14:09.830Z,29.28
2022-08-26T12:16:43.505Z,29.27
2022-08-26T12:19:32.709Z,29.33
2022-08-26T12:22:08.644Z,29.41
2022-08-26T12:24:48.640Z,29.43
2022-08-26T12:27:25.487Z,29.36
2022-08-26T12:30:14.194Z,29.35
2022-08-26T12:32:50.984Z,29.38
2022-08-26T12:35:32.139Z,29.45
2022-08-26T12:38:05.209Z,29.45
2022-08-26T12:40:44.621Z,29.46
2022-08-26T12:43:41.510Z,29.46
2022-08-26T12:46:17.861Z,29.48
2022-08-26T12:48:53.426Z,29.46
2022-08-26T12:51:31.251Z,29.53
2022-08-26T12:54:07.305Z,29.61
2022-08-26T12:56:40.952Z,29.60
2022-08-26T12:59:25.198Z,29.62
2022-08-26T13:01:57.695Z,29.61
2022-08-26T13:04:39.111Z,29.63
2022-08-26T13:07:26.675Z,29.70
2022-08-26T13:10:01.069Z,29.75
2022-08-26T13:16:47.522Z,29.78
2022-08-26T13:24:18.067Z,29.88
2022-08-26T13:32:46.233Z,30.03
2022-08-26T13:35:25.349Z,29.96
2022-08-26T13:38:33.438Z,29.94
2022-08-26T13:41:06.636Z,30.01
2022-08-26T13:48:22.861Z,30.05
2022-08-26T13:51:20.489Z,30.13
2022-08-26T13:53:53.461Z,30.17
2022-08-26T13:56:29.728Z,30.21
2022-08-26T13:59:03.331Z,30.25
2022-08-26T14:01:38.230Z,30.28
2022-08-26T14:04:10.650Z,30.33
2022-08-26T14:06:42.894Z,30.33
2022-08-26T14:09:15.261Z,30.33
2022-08-26T14:11:53.930Z,30.32
2022-08-26T14:14:26.968Z,30.32
2022-08-26T14:17:00.557Z,30.34
2022-08-26T14:19:33.510Z,30.36
2022-08-26T14:22:06.852Z,30.40
2022-08-26T14:24:39.217Z,30.38
2022-08-26T14:27:11.399Z,30.39
2022-08-26T14:29:43.861Z,30.35
2022-08-26T14:32:25.395Z,30.32
2022-08-26T14:34:58.961Z,30.32
2022-08-26T14:37:31.622Z,30.32
2022-08-26T14:40:06.016Z,30.31
2022-08-26T14:42:41.344Z,30.24
2022-08-26T14:45:17.944Z,30.26
2022-08-26T14:47:51.841Z,30.27
2022-08-26T14:50:26.643Z,30.33
2022-08-26T14:53:16.785Z,30.32
2022-08-26T14:55:50.565Z,30.27
2022-08-26T14:58:25.001Z,30.25
2022-08-26T15:01:21.081Z,30.18
2022-08-26T15:03:53.813Z,30.13
2022-08-26T15:06:31.880Z,30.08
2022-08-26T15:09:06.510Z,30.02
2022-08-26T15:11:39.034Z,30.00
2022-08-26T15:14:18.876Z,29.95
2022-08-26T15:16:55.918Z,29.82
2022-08-26T15:19:29.340Z,29.76
2022-08-26T15:22:01.603Z,29.71
2022-08-26T15:24:33.801Z,29.66
2022-08-26T15:27:06.428Z,29.60
2022-08-26T15:29:41.609Z,29.53
2022-08-26T15:32:16.312Z,29.46
2022-08-26T15:34:50.028Z,29.41
2022-08-26T15:37:22.219Z,29.38
2022-08-26T15:39:56.770Z,29.32
2022-08-26T15:42:29.401Z,29.26
2022-08-26T15:45:01.641Z,29.19
2022-08-26T15:47:38.114Z,29.13
2022-08-26T15:50:26.375Z,29.08
2022-08-26T15:52:59.778Z,29.04
2022-08-26T15:55:31.975Z,28.96
2022-08-26T15:58:38.083Z,28.89
2022-08-26T16:01:10.647Z,28.85
2022-08-26T16:03:45.355Z,28.83
2022-08-26T16:06:22.507Z,28.77
2022-08-26T16:08:55.653Z,28.75
2022-08-26T16:11:31.919Z,28.67
2022-08-26T16:14:04.696Z,28.60
2022-08-26T16:16:43.364Z,28.56
2022-08-26T16:19:15.887Z,28.52
2022-08-26T16:21:51.485Z,28.44
2022-08-26T16:24:29.742Z,28.36
2022-08-26T16:27:03.520Z,28.25
2022-08-26T16:29:35.801Z,28.15
2022-08-26T16:32:08.835Z,28.05
2022-08-26T16:34:46.967Z,27.95
2022-08-26T16:37:29.128Z,27.84
2022-08-26T16:40:01.770Z,27.72
2022-08-26T16:42:34.484Z,27.62
2022-08-26T16:45:07.714Z,27.48
2022-08-26T16:47:40.046Z,27.36
2022-08-26T16:50:13.221Z,27.22
2022-08-26T16:52:51.571Z,27.09
2022-08-26T16:55:28.303Z,27.00
2022-08-26T16:58:00.643Z,26.90
2022-08-26T17:05:27.040Z,26.56
2022-08-26T17:08:07.240Z,26.45
2022-08-26T17:10:38.509Z,26.31
2022-08-26T17:13:35.181Z,26.18
2022-08-26T17:16:10.811Z,26.03
2022-08-26T17:19:32.778Z,25.87
2022-08-26T17:22:20.980Z,25.75
2022-08-26T17:24:53.544Z,25.64
2022-08-26T17:27:31.904Z,25.52
2022-08-26T17:30:07.162Z,25.39
2022-08-26T17:33:39.215Z,25.20
2022-08-26T17:36:53.402Z,25.06
2022-08-26T17:39:26.673Z,24.90
2022-08-26T17:43:12.424Z,24.78
2022-08-26T17:45:45.443Z,24.63
2022-08-26T17:53:08.061Z,24.29
2022-08-26T17:55:45.223Z,24.18
2022-08-26T18:03:08.781Z,23.85
2022-08-26T18:10:14.070Z,23.54
2022-08-26T18:13:36.389Z,23.38
2022-08-26T18:21:01.520Z,23.08
2022-08-26T18:24:41.634Z,22.96
2022-08-26T18:28:26.679Z,22.85
2022-08-26T18:30:59.024Z,22.78
2022-08-26T18:33:31.472Z,22.74
2022-08-26T18:36:05.874Z,22.69
2022-08-26T18:39:03.523Z,22.61
2022-08-26T18:45:20.850Z,22.43
2022-08-26T18:48:51.013Z,22.34
2022-08-26T18:51:25.305Z,22.24
2022-08-26T18:53:58.609Z,22.15
2022-08-26T18:56:32.766Z,22.09
2022-08-26T18:59:07.908Z,22.03
2022-08-26T19:02:39.814Z,21.93
2022-08-26T19:05:53.744Z,21.86
2022-08-26T19:08:26.336Z,21.77
2022-08-26T19:11:00.360Z,21.70
2022-08-26T19:14:28.135Z,21.63
2022-08-26T19:17:01.609Z,21.53
2022-08-26T19:19:34.458Z,21.46
2022-08-26T19:22:07.609Z,21.39
2022-08-26T19:24:46.825Z,21.33
2022-08-26T19:27:19.316Z,21.29
2022-08-26T19:29:51.523Z,21.25
2022-08-26T19:32:24.475Z,21.20
2022-08-26T19:34:57.387Z,21.15
2022-08-26T19:37:57.193Z,21.11
2022-08-26T19:45:29.267Z,20.91
2022-08-26T19:52:58.141Z,20.77
2022-08-26T19:55:30.377Z,20.72
2022-08-26T19:58:03.976Z,20.70
2022-08-26T20:00:39.686Z,20.68
2022-08-26T20:03:15.827Z,20.67
2022-08-26T20:05:48.959Z,20.64
2022-08-26T20:08:22.444Z,20.61
2022-08-26T20:10:54.978Z,20.57
2022-08-26T20:13:27.174Z,20.51
2022-08-26T20:15:59.637Z,20.49
2022-08-26T20:18:49.606Z,20.47
2022-08-26T20:21:29.840Z,20.44
2022-08-26T20:24:04.245Z,20.42
2022-08-26T20:26:38.504Z,20.40
2022-08-26T20:29:12.827Z,20.39
2022-08-26T20:31:45.984Z,20.40
2022-08-26T20:34:19.679Z,20.38
2022-08-26T20:36:52.657Z,20.37
2022-08-26T20:39:25.467Z,20.38
2022-08-26T20:41:58.593Z,20.37
2022-08-26T20:44:31.952Z,20.36
2022-08-26T20:47:04.528Z,20.33
2022-08-26T20:49:37.304Z,20.32
2022-08-26T20:52:11.032Z,20.29
2022-08-26T20:54:43.508Z,20.27
2022-08-26T20:57:15.749Z,20.25
2022-08-26T20:59:47.874Z,20.21
2022-08-26T21:02:20.939Z,20.18
2022-08-26T21:04:53.702Z,20.15
2022-08-26T21:07:26.415Z,20.12
2022-08-26T21:09:58.783Z,20.11
2022-08-26T21:12:33.539Z,20.09
2022-08-26T21:15:06.267Z,20.08
2022-08-26T21:17:38.697Z,20.07
2022-08-26T21:20:11.746Z,20.05
2022-08-26T21:22:45.783Z,20.01
2022-08-26T21:25:18.062Z,19.95
2022-08-26T21:27:50.300Z,19.90
2022-08-26T21:30:23.746Z,19.84
2022-08-26T21:32:56.513Z,19.78
2022-08-26T21:35:29.014Z,19.74
2022-08-26T21:38:01.207Z,19.68
2022-08-26T21:40:33.355Z,19.63
2022-08-26T21:43:05.549Z,19.57
2022-08-26T21:45:42.174Z,19.49
2022-08-26T21:48:14.339Z,19.42
2022-08-26T21:50:46.855Z,19.36
2022-08-26T21:53:19.513Z,19.30
2022-08-26T21:55:51.834Z,19.24
2022-08-26T21:58:24.324Z,19.19
2022-08-26T22:00:56.710Z,19.16
2022-08-26T22:03:29.067Z,19.11
2022-08-26T22:06:03.551Z,19.06
2022-08-26T22:08:38.197Z,19.01
2022-08-26T22:11:10.907Z,18.96
2022-08-26T22:13:44.399Z,18.92
2022-08-26T22:16:17.382Z,18.88
2022-08-26T22:18:49.643Z,18.85
2022-08-26T22:21:24.810Z,18.82
2022-08-26T22:23:58.193Z,18.77
2022-08-26T22:26:33.944Z,18.68
2022-08-26T22:29:08.099Z,18.63
2022-08-26T22:31:40.552Z,18.54
2022-08-26T22:34:17.271Z,18.52
2022-08-26T22:36:51.246Z,18.49
2022-08-26T22:39:25.553Z,18.46
2022-08-26T22:41:58.003Z,18.43
2022-08-26T22:44:30.313Z,18.38
2022-08-26T22:47:05.570Z,18.33
2022-08-26T22:49:38.636Z,18.28
2022-08-26T22:52:10.806Z,18.23
2022-08-26T22:54:43.047Z,18.17
2022-08-26T22:57:15.194Z,18.11
2022-08-26T22:59:47.745Z,18.07
2022-08-26T23:02:19.948Z,18.03
2022-08-26T23:04:52.404Z,17.98
2022-08-26T23:07:24.869Z,17.95
2022-08-26T23:09:57.072Z,17.94
2022-08-26T23:12:29.334Z,17.91
2022-08-26T23:15:02.388Z,17.89
2022-08-26T23:17:36.762Z,17.87
2022-08-26T23:20:12.821Z,17.81
2022-08-26T23:22:45.510Z,17.77
2022-08-26T23:25:17.577Z,17.72
2022-08-26T23:27:50.334Z,17.69
2022-08-26T23:30:25.888Z,17.67
2022-08-26T23:32:59.303Z,17.66
2022-08-26T23:35:31.589Z,17.63
2022-08-26T23:38:05.831Z,17.60
2022-08-26T23:40:39.429Z,17.57
2022-08-26T23:43:12.630Z,17.54
2022-08-26T23:45:44.843Z,17.52
2022-08-26T23:48:19.855Z,17.50
2022-08-26T23:51:09.544Z,17.49
2022-08-26T23:53:42.493Z,17.48
2022-08-26T23:56:18.485Z,17.49
2022-08-26T23:58:50.889Z,17.49
